sensor_id;sensor_type;location;lat;lon;timestamp;P1;durP1;ratioP1;P2;durP2;ratioP2
61025;SDS011;46911;32.650;-16.902;2024-03-17T00:00:03;12.82;;;4.40;;
61025;SDS011;46911;32.650;-16.902;2024-03-17T00:02:10;12.30;;;4.65;;
61025;SDS011;46911;32.650;-16.902;2024-03-17T00:04:11;16.58;;;4.88;;
61025;SDS011;46911;32.650;-16.902;2024-03-17T00:06:12;7.90;;;4.25;;
61025;SDS011;46911;32.650;-16.902;2024-03-17T00:08:13;12.35;;;4.65;;
61025;SDS011;46911;32.650;-16.902;2024-03-17T00:10:15;16.90;;;4.72;;
61025;SDS011;46911;32.650;-16.902;2024-03-17T00:12:16;15.30;;;4.10;;
61025;SDS011;46911;32.650;-16.902;2024-03-17T00:14:20;12.50;;;4.10;;
61025;SDS011;46911;32.650;-16.902;2024-03-17T00:16:29;7.40;;;3.13;;
61025;SDS011;46911;32.650;-16.902;2024-03-17T00:18:33;9.98;;;3.80;;
61025;SDS011;46911;32.650;-16.902;2024-03-17T00:20:34;8.07;;;3.17;;
61025;SDS011;46911;32.650;-16.902;2024-03-17T00:22:35;13.80;;;3.50;;
61025;SDS011;46911;32.650;-16.902;2024-03-17T00:24:43;8.68;;;3.10;;
61025;SDS011;46911;32.650;-16.902;2024-03-17T00:26:47;12.88;;;3.70;;
61025;SDS011;46911;32.650;-16.902;2024-03-17T00:28:52;8.80;;;3.38;;
61025;SDS011;46911;32.650;-16.902;2024-03-17T00:30:53;11.25;;;3.90;;
61025;SDS011;46911;32.650;-16.902;2024-03-17T00:32:57;12.70;;;3.63;;
61025;SDS011;46911;32.650;-16.902;2024-03-17T00:34:58;12.35;;;3.90;;
61025;SDS011;46911;32.650;-16.902;2024-03-17T00:36:59;11.43;;;3.55;;
61025;SDS011;46911;32.650;-16.902;2024-03-17T00:39:00;9.68;;;3.75;;
61025;SDS011;46911;32.650;-16.902;2024-03-17T00:41:02;7.75;;;3.20;;
61025;SDS011;46911;32.650;-16.902;2024-03-17T00:43:07;6.75;;;3.05;;
61025;SDS011;46911;32.650;-16.902;2024-03-17T00:45:12;10.77;;;2.92;;
61025;SDS011;46911;32.650;-16.902;2024-03-17T00:47:16;8.75;;;3.00;;
61025;SDS011;46911;32.650;-16.902;2024-03-17T00:49:20;9.23;;;3.08;;
61025;SDS011;46911;32.650;-16.902;2024-03-17T00:51:24;12.00;;;2.78;;
61025;SDS011;46911;32.650;-16.902;2024-03-17T00:53:30;6.38;;;2.75;;
61025;SDS011;46911;32.650;-16.902;2024-03-17T00:55:31;7.90;;;2.70;;
61025;SDS011;46911;32.650;-16.902;2024-03-17T00:57:32;9.13;;;2.70;;
61025;SDS011;46911;32.650;-16.902;2024-03-17T00:59:32;8.63;;;3.15;;
61025;SDS011;46911;32.650;-16.902;2024-03-17T01:01:34;8.40;;;3.15;;
61025;SDS011;46911;32.650;-16.902;2024-03-17T01:03:36;8.23;;;2.85;;
61025;SDS011;46911;32.650;-16.902;2024-03-17T01:05:40;8.30;;;2.78;;
61025;SDS011;46911;32.650;-16.902;2024-03-17T01:07:48;6.90;;;2.38;;
61025;SDS011;46911;32.650;-16.902;2024-03-17T01:09:53;5.18;;;2.15;;
61025;SDS011;46911;32.650;-16.902;2024-03-17T01:11:57;11.77;;;3.25;;
61025;SDS011;46911;32.650;-16.902;2024-03-17T01:13:58;7.30;;;2.47;;
61025;SDS011;46911;32.650;-16.902;2024-03-17T01:15:59;9.40;;;2.40;;
61025;SDS011;46911;32.650;-16.902;2024-03-17T01:18:00;9.13;;;2.42;;
61025;SDS011;46911;32.650;-16.902;2024-03-17T01:20:05;6.63;;;2.03;;
61025;SDS011;46911;32.650;-16.902;2024-03-17T01:22:07;7.20;;;2.33;;
61025;SDS011;46911;32.650;-16.902;2024-03-17T01:24:13;9.45;;;2.50;;
61025;SDS011;46911;32.650;-16.902;2024-03-17T01:26:14;10.73;;;2.50;;
61025;SDS011;46911;32.650;-16.902;2024-03-17T01:28:17;7.22;;;2.30;;
61025;SDS011;46911;32.650;-16.902;2024-03-17T01:30:18;10.25;;;2.92;;
61025;SDS011;46911;32.650;-16.902;2024-03-17T01:32:19;9.88;;;2.67;;
61025;SDS011;46911;32.650;-16.902;2024-03-17T01:34:20;9.60;;;2.30;;
61025;SDS011;46911;32.650;-16.902;2024-03-17T01:36:21;7.75;;;2.55;;
61025;SDS011;46911;32.650;-16.902;2024-03-17T01:38:25;10.05;;;2.22;;
61025;SDS011;46911;32.650;-16.902;2024-03-17T01:40:29;11.57;;;2.38;;
61025;SDS011;46911;32.650;-16.902;2024-03-17T01:42:32;5.20;;;1.77;;
61025;SDS011;46911;32.650;-16.902;2024-03-17T01:44:42;8.68;;;2.38;;
61025;SDS011;46911;32.650;-16.902;2024-03-17T01:46:42;14.32;;;2.10;;
61025;SDS011;46911;32.650;-16.902;2024-03-17T01:48:43;8.57;;;2.10;;
61025;SDS011;46911;32.650;-16.902;2024-03-17T01:50:46;10.40;;;2.00;;
61025;SDS011;46911;32.650;-16.902;2024-03-17T01:52:53;9.20;;;2.40;;
61025;SDS011;46911;32.650;-16.902;2024-03-17T01:55:02;11.90;;;2.30;;
61025;SDS011;46911;32.650;-16.902;2024-03-17T01:57:06;14.85;;;2.22;;
61025;SDS011;46911;32.650;-16.902;2024-03-17T01:59:09;6.63;;;2.30;;
61025;SDS011;46911;32.650;-16.902;2024-03-17T02:01:13;13.20;;;2.80;;
61025;SDS011;46911;32.650;-16.902;2024-03-17T02:03:16;11.20;;;1.85;;
61025;SDS011;46911;32.650;-16.902;2024-03-17T02:05:22;8.93;;;2.28;;
61025;SDS011;46911;32.650;-16.902;2024-03-17T02:07:29;11.60;;;2.40;;
61025;SDS011;46911;32.650;-16.902;2024-03-17T02:09:30;6.70;;;1.85;;
61025;SDS011;46911;32.650;-16.902;2024-03-17T02:11:31;8.82;;;1.88;;
61025;SDS011;46911;32.650;-16.902;2024-03-17T02:13:33;5.35;;;1.50;;
61025;SDS011;46911;32.650;-16.902;2024-03-17T02:15:37;12.07;;;2.10;;
61025;SDS011;46911;32.650;-16.902;2024-03-17T02:17:38;8.75;;;2.38;;
61025;SDS011;46911;32.650;-16.902;2024-03-17T02:19:39;10.75;;;2.45;;
61025;SDS011;46911;32.650;-16.902;2024-03-17T02:21:40;13.63;;;2.28;;
61025;SDS011;46911;32.650;-16.902;2024-03-17T02:23:41;10.82;;;2.42;;
61025;SDS011;46911;32.650;-16.902;2024-03-17T02:25:48;7.80;;;1.70;;
61025;SDS011;46911;32.650;-16.902;2024-03-17T02:27:52;10.00;;;2.05;;
61025;SDS011;46911;32.650;-16.902;2024-03-17T02:29:55;7.78;;;1.83;;
61025;SDS011;46911;32.650;-16.902;2024-03-17T02:31:58;8.90;;;2.30;;
61025;SDS011;46911;32.650;-16.902;2024-03-17T02:33:59;7.63;;;2.00;;
61025;SDS011;46911;32.650;-16.902;2024-03-17T02:36:05;5.22;;;1.70;;
61025;SDS011;46911;32.650;-16.902;2024-03-17T02:38:10;12.10;;;1.60;;
61025;SDS011;46911;32.650;-16.902;2024-03-17T02:40:41;11.20;;;2.30;;
61025;SDS011;46911;32.650;-16.902;2024-03-17T02:42:42;11.98;;;1.88;;
61025;SDS011;46911;32.650;-16.902;2024-03-17T02:44:45;7.63;;;1.90;;
61025;SDS011;46911;32.650;-16.902;2024-03-17T02:46:48;4.35;;;1.63;;
61025;SDS011;46911;32.650;-16.902;2024-03-17T02:48:53;14.13;;;2.60;;
61025;SDS011;46911;32.650;-16.902;2024-03-17T02:50:59;5.45;;;1.80;;
61025;SDS011;46911;32.650;-16.902;2024-03-17T02:53:00;7.35;;;1.63;;
61025;SDS011;46911;32.650;-16.902;2024-03-17T02:55:03;7.78;;;1.70;;
61025;SDS011;46911;32.650;-16.902;2024-03-17T02:57:05;5.78;;;1.73;;
61025;SDS011;46911;32.650;-16.902;2024-03-17T02:59:07;5.53;;;1.67;;
61025;SDS011;46911;32.650;-16.902;2024-03-17T03:01:08;6.85;;;1.67;;
61025;SDS011;46911;32.650;-16.902;2024-03-17T03:03:14;9.13;;;2.15;;
61025;SDS011;46911;32.650;-16.902;2024-03-17T03:05:17;7.55;;;1.67;;
61025;SDS011;46911;32.650;-16.902;2024-03-17T03:07:23;5.93;;;1.67;;
61025;SDS011;46911;32.650;-16.902;2024-03-17T03:09:26;8.40;;;1.92;;
61025;SDS011;46911;32.650;-16.902;2024-03-17T03:11:31;7.43;;;2.05;;
61025;SDS011;46911;32.650;-16.902;2024-03-17T03:13:32;8.18;;;2.30;;
61025;SDS011;46911;32.650;-16.902;2024-03-17T03:15:35;7.97;;;2.00;;
61025;SDS011;46911;32.650;-16.902;2024-03-17T03:17:36;12.85;;;2.15;;
61025;SDS011;46911;32.650;-16.902;2024-03-17T03:19:37;13.82;;;2.83;;
61025;SDS011;46911;32.650;-16.902;2024-03-17T03:21:40;7.50;;;2.00;;
61025;SDS011;46911;32.650;-16.902;2024-03-17T03:23:44;18.50;;;1.95;;
61025;SDS011;46911;32.650;-16.902;2024-03-17T03:25:45;8.23;;;2.75;;
61025;SDS011;46911;32.650;-16.902;2024-03-17T03:27:53;9.15;;;1.77;;
61025;SDS011;46911;32.650;-16.902;2024-03-17T03:29:59;5.28;;;1.40;;
61025;SDS011;46911;32.650;-16.902;2024-03-17T03:32:01;10.50;;;2.13;;
61025;SDS011;46911;32.650;-16.902;2024-03-17T03:34:02;9.98;;;1.92;;
61025;SDS011;46911;32.650;-16.902;2024-03-17T03:36:11;10.13;;;2.17;;
61025;SDS011;46911;32.650;-16.902;2024-03-17T03:38:17;12.10;;;2.00;;
61025;SDS011;46911;32.650;-16.902;2024-03-17T03:40:20;10.55;;;1.95;;
61025;SDS011;46911;32.650;-16.902;2024-03-17T03:42:21;6.30;;;2.08;;
61025;SDS011;46911;32.650;-16.902;2024-03-17T03:44:23;5.30;;;1.52;;
61025;SDS011;46911;32.650;-16.902;2024-03-17T03:46:26;3.92;;;1.40;;
61025;SDS011;46911;32.650;-16.902;2024-03-17T03:48:30;7.97;;;1.50;;
61025;SDS011;46911;32.650;-16.902;2024-03-17T03:50:37;11.52;;;2.05;;
61025;SDS011;46911;32.650;-16.902;2024-03-17T03:52:38;9.07;;;1.70;;
61025;SDS011;46911;32.650;-16.902;2024-03-17T03:54:40;7.55;;;2.05;;
61025;SDS011;46911;32.650;-16.902;2024-03-17T03:56:44;7.97;;;1.58;;
61025;SDS011;46911;32.650;-16.902;2024-03-17T03:58:45;6.63;;;1.27;;
61025;SDS011;46911;32.650;-16.902;2024-03-17T04:00:53;6.45;;;1.58;;
61025;SDS011;46911;32.650;-16.902;2024-03-17T04:02:53;8.38;;;1.52;;
61025;SDS011;46911;32.650;-16.902;2024-03-17T04:04:57;7.65;;;1.40;;
61025;SDS011;46911;32.650;-16.902;2024-03-17T04:07:01;7.03;;;1.17;;
61025;SDS011;46911;32.650;-16.902;2024-03-17T04:09:01;4.90;;;1.67;;
61025;SDS011;46911;32.650;-16.902;2024-03-17T04:11:02;9.25;;;1.25;;
61025;SDS011;46911;32.650;-16.902;2024-03-17T04:13:04;5.80;;;2.10;;
61025;SDS011;46911;32.650;-16.902;2024-03-17T04:15:08;10.90;;;2.25;;
61025;SDS011;46911;32.650;-16.902;2024-03-17T04:17:12;9.23;;;1.60;;
61025;SDS011;46911;32.650;-16.902;2024-03-17T04:19:13;7.95;;;1.70;;
61025;SDS011;46911;32.650;-16.902;2024-03-17T04:21:17;14.32;;;2.30;;
61025;SDS011;46911;32.650;-16.902;2024-03-17T04:23:20;7.38;;;2.10;;
61025;SDS011;46911;32.650;-16.902;2024-03-17T04:25:24;8.55;;;1.70;;
61025;SDS011;46911;32.650;-16.902;2024-03-17T04:27:28;5.15;;;1.73;;
61025;SDS011;46911;32.650;-16.902;2024-03-17T04:29:35;5.93;;;1.35;;
61025;SDS011;46911;32.650;-16.902;2024-03-17T04:31:36;13.63;;;1.63;;
61025;SDS011;46911;32.650;-16.902;2024-03-17T04:33:38;8.75;;;1.60;;
61025;SDS011;46911;32.650;-16.902;2024-03-17T04:35:44;9.05;;;2.38;;
61025;SDS011;46911;32.650;-16.902;2024-03-17T04:37:47;8.52;;;1.50;;
61025;SDS011;46911;32.650;-16.902;2024-03-17T04:39:50;14.93;;;1.70;;
61025;SDS011;46911;32.650;-16.902;2024-03-17T04:41:51;12.35;;;2.05;;
61025;SDS011;46911;32.650;-16.902;2024-03-17T04:43:52;8.68;;;1.70;;
61025;SDS011;46911;32.650;-16.902;2024-03-17T04:46:02;6.00;;;1.73;;
61025;SDS011;46911;32.650;-16.902;2024-03-17T04:48:08;6.40;;;1.48;;
61025;SDS011;46911;32.650;-16.902;2024-03-17T04:50:08;6.03;;;1.60;;
61025;SDS011;46911;32.650;-16.902;2024-03-17T04:52:13;7.10;;;0.93;;
61025;SDS011;46911;32.650;-16.902;2024-03-17T04:54:16;5.93;;;1.55;;
61025;SDS011;46911;32.650;-16.902;2024-03-17T04:56:23;9.70;;;1.30;;
61025;SDS011;46911;32.650;-16.902;2024-03-17T04:58:26;7.22;;;1.15;;
61025;SDS011;46911;32.650;-16.902;2024-03-17T05:00:35;4.10;;;1.30;;
61025;SDS011;46911;32.650;-16.902;2024-03-17T05:02:36;5.25;;;1.23;;
61025;SDS011;46911;32.650;-16.902;2024-03-17T05:04:37;6.35;;;1.70;;
61025;SDS011;46911;32.650;-16.902;2024-03-17T05:06:42;9.10;;;1.38;;
61025;SDS011;46911;32.650;-16.902;2024-03-17T05:08:51;8.50;;;1.80;;
61025;SDS011;46911;32.650;-16.902;2024-03-17T05:10:57;7.88;;;1.30;;
61025;SDS011;46911;32.650;-16.902;2024-03-17T05:13:03;5.80;;;1.27;;
61025;SDS011;46911;32.650;-16.902;2024-03-17T05:15:04;7.78;;;1.42;;
61025;SDS011;46911;32.650;-16.902;2024-03-17T05:17:06;8.32;;;1.50;;
61025;SDS011;46911;32.650;-16.902;2024-03-17T05:19:10;7.05;;;1.35;;
61025;SDS011;46911;32.650;-16.902;2024-03-17T05:21:14;3.75;;;1.15;;
61025;SDS011;46911;32.650;-16.902;2024-03-17T05:23:19;8.77;;;1.65;;
61025;SDS011;46911;32.650;-16.902;2024-03-17T05:25:20;5.15;;;1.02;;
61025;SDS011;46911;32.650;-16.902;2024-03-17T05:27:23;4.78;;;1.35;;
61025;SDS011;46911;32.650;-16.902;2024-03-17T05:29:26;3.67;;;1.30;;
61025;SDS011;46911;32.650;-16.902;2024-03-17T05:31:27;13.18;;;1.67;;
61025;SDS011;46911;32.650;-16.902;2024-03-17T05:33:32;11.60;;;1.75;;
61025;SDS011;46911;32.650;-16.902;2024-03-17T05:35:33;6.28;;;1.30;;
61025;SDS011;46911;32.650;-16.902;2024-03-17T05:37:34;5.70;;;1.40;;
61025;SDS011;46911;32.650;-16.902;2024-03-17T05:39:38;4.43;;;0.95;;
61025;SDS011;46911;32.650;-16.902;2024-03-17T05:41:39;5.95;;;1.45;;
61025;SDS011;46911;32.650;-16.902;2024-03-17T05:43:41;6.32;;;1.55;;
61025;SDS011;46911;32.650;-16.902;2024-03-17T05:45:43;6.90;;;1.38;;
61025;SDS011;46911;32.650;-16.902;2024-03-17T05:47:51;17.85;;;2.00;;
61025;SDS011;46911;32.650;-16.902;2024-03-17T05:49:52;9.00;;;1.23;;
61025;SDS011;46911;32.650;-16.902;2024-03-17T05:51:56;4.57;;;1.40;;
61025;SDS011;46911;32.650;-16.902;2024-03-17T05:53:56;5.93;;;1.95;;
61025;SDS011;46911;32.650;-16.902;2024-03-17T05:55:59;6.78;;;1.50;;
61025;SDS011;46911;32.650;-16.902;2024-03-17T05:58:02;7.95;;;1.73;;
61025;SDS011;46911;32.650;-16.902;2024-03-17T06:00:06;12.10;;;1.90;;
61025;SDS011;46911;32.650;-16.902;2024-03-17T06:02:12;6.20;;;1.73;;
61025;SDS011;46911;32.650;-16.902;2024-03-17T06:04:16;6.28;;;1.67;;
61025;SDS011;46911;32.650;-16.902;2024-03-17T06:06:23;9.63;;;1.63;;
61025;SDS011;46911;32.650;-16.902;2024-03-17T06:08:26;7.25;;;1.70;;
61025;SDS011;46911;32.650;-16.902;2024-03-17T06:10:30;9.57;;;1.73;;
61025;SDS011;46911;32.650;-16.902;2024-03-17T06:12:32;9.98;;;1.48;;
61025;SDS011;46911;32.650;-16.902;2024-03-17T06:14:36;6.15;;;1.20;;
61025;SDS011;46911;32.650;-16.902;2024-03-17T06:16:37;6.25;;;1.90;;
61025;SDS011;46911;32.650;-16.902;2024-03-17T06:18:40;9.13;;;1.40;;
61025;SDS011;46911;32.650;-16.902;2024-03-17T06:20:43;8.00;;;2.03;;
61025;SDS011;46911;32.650;-16.902;2024-03-17T06:22:45;4.10;;;1.20;;
61025;SDS011;46911;32.650;-16.902;2024-03-17T06:24:48;11.02;;;1.58;;
61025;SDS011;46911;32.650;-16.902;2024-03-17T06:26:53;6.10;;;1.48;;
61025;SDS011;46911;32.650;-16.902;2024-03-17T06:29:00;7.80;;;1.77;;
61025;SDS011;46911;32.650;-16.902;2024-03-17T06:31:02;16.40;;;2.05;;
61025;SDS011;46911;32.650;-16.902;2024-03-17T06:33:09;12.35;;;1.42;;
61025;SDS011;46911;32.650;-16.902;2024-03-17T06:35:14;10.35;;;1.40;;
61025;SDS011;46911;32.650;-16.902;2024-03-17T06:37:25;7.25;;;1.42;;
61025;SDS011;46911;32.650;-16.902;2024-03-17T06:39:26;5.65;;;1.25;;
61025;SDS011;46911;32.650;-16.902;2024-03-17T06:41:29;5.38;;;1.35;;
61025;SDS011;46911;32.650;-16.902;2024-03-17T06:43:33;8.45;;;1.58;;
61025;SDS011;46911;32.650;-16.902;2024-03-17T06:45:37;6.85;;;1.30;;
61025;SDS011;46911;32.650;-16.902;2024-03-17T06:47:40;7.20;;;1.85;;
61025;SDS011;46911;32.650;-16.902;2024-03-17T06:49:44;6.60;;;1.20;;
61025;SDS011;46911;32.650;-16.902;2024-03-17T06:51:45;5.68;;;1.27;;
61025;SDS011;46911;32.650;-16.902;2024-03-17T06:53:46;6.75;;;1.58;;
61025;SDS011;46911;32.650;-16.902;2024-03-17T06:57:54;6.15;;;1.25;;
61025;SDS011;46911;32.650;-16.902;2024-03-17T07:00:00;7.63;;;1.27;;
61025;SDS011;46911;32.650;-16.902;2024-03-17T07:02:02;3.30;;;0.98;;
61025;SDS011;46911;32.650;-16.902;2024-03-17T07:04:03;2.40;;;1.10;;
61025;SDS011;46911;32.650;-16.902;2024-03-17T07:06:07;8.93;;;1.10;;
61025;SDS011;46911;32.650;-16.902;2024-03-17T07:08:13;7.20;;;1.20;;
61025;SDS011;46911;32.650;-16.902;2024-03-17T07:10:16;3.67;;;1.00;;
61025;SDS011;46911;32.650;-16.902;2024-03-17T07:12:21;4.07;;;1.13;;
61025;SDS011;46911;32.650;-16.902;2024-03-17T07:14:24;5.03;;;1.15;;
61025;SDS011;46911;32.650;-16.902;2024-03-17T07:16:28;3.47;;;0.93;;
61025;SDS011;46911;32.650;-16.902;2024-03-17T07:18:32;5.88;;;1.45;;
61025;SDS011;46911;32.650;-16.902;2024-03-17T07:20:33;8.45;;;1.40;;
61025;SDS011;46911;32.650;-16.902;2024-03-17T07:22:37;7.60;;;1.98;;
61025;SDS011;46911;32.650;-16.902;2024-03-17T07:24:43;7.95;;;1.08;;
61025;SDS011;46911;32.650;-16.902;2024-03-17T07:26:44;4.20;;;1.15;;
61025;SDS011;46911;32.650;-16.902;2024-03-17T07:28:45;11.73;;;1.45;;
61025;SDS011;46911;32.650;-16.902;2024-03-17T07:30:55;9.30;;;1.35;;
61025;SDS011;46911;32.650;-16.902;2024-03-17T07:32:56;9.40;;;1.23;;
61025;SDS011;46911;32.650;-16.902;2024-03-17T07:35:02;4.30;;;1.23;;
61025;SDS011;46911;32.650;-16.902;2024-03-17T07:37:03;9.10;;;1.17;;
61025;SDS011;46911;32.650;-16.902;2024-03-17T07:39:07;2.88;;;1.00;;
61025;SDS011;46911;32.650;-16.902;2024-03-17T07:41:08;6.85;;;1.30;;
61025;SDS011;46911;32.650;-16.902;2024-03-17T07:43:09;8.40;;;1.15;;
61025;SDS011;46911;32.650;-16.902;2024-03-17T07:45:13;6.72;;;0.90;;
61025;SDS011;46911;32.650;-16.902;2024-03-17T07:47:14;8.68;;;1.40;;
61025;SDS011;46911;32.650;-16.902;2024-03-17T07:49:15;5.60;;;1.15;;
61025;SDS011;46911;32.650;-16.902;2024-03-17T07:51:16;5.80;;;1.15;;
61025;SDS011;46911;32.650;-16.902;2024-03-17T07:53:23;10.85;;;1.85;;
61025;SDS011;46911;32.650;-16.902;2024-03-17T07:55:27;4.13;;;1.00;;
61025;SDS011;46911;32.650;-16.902;2024-03-17T07:57:28;8.60;;;1.10;;
61025;SDS011;46911;32.650;-16.902;2024-03-17T07:59:29;4.72;;;0.88;;
61025;SDS011;46911;32.650;-16.902;2024-03-17T08:01:32;5.15;;;1.15;;
61025;SDS011;46911;32.650;-16.902;2024-03-17T08:03:33;7.85;;;1.00;;
61025;SDS011;46911;32.650;-16.902;2024-03-17T08:05:38;10.77;;;1.00;;
61025;SDS011;46911;32.650;-16.902;2024-03-17T08:07:39;5.75;;;1.15;;
61025;SDS011;46911;32.650;-16.902;2024-03-17T08:09:42;6.55;;;1.25;;
61025;SDS011;46911;32.650;-16.902;2024-03-17T08:11:43;4.57;;;1.00;;
61025;SDS011;46911;32.650;-16.902;2024-03-17T08:13:47;4.93;;;1.23;;
61025;SDS011;46911;32.650;-16.902;2024-03-17T08:15:57;3.75;;;1.05;;
61025;SDS011;46911;32.650;-16.902;2024-03-17T08:17:59;5.25;;;1.13;;
61025;SDS011;46911;32.650;-16.902;2024-03-17T08:20:03;4.43;;;0.85;;
61025;SDS011;46911;32.650;-16.902;2024-03-17T08:22:09;2.85;;;0.80;;
61025;SDS011;46911;32.650;-16.902;2024-03-17T08:24:10;5.55;;;1.02;;
61025;SDS011;46911;32.650;-16.902;2024-03-17T08:26:11;3.40;;;0.90;;
61025;SDS011;46911;32.650;-16.902;2024-03-17T08:28:15;8.15;;;1.10;;
61025;SDS011;46911;32.650;-16.902;2024-03-17T08:30:18;3.10;;;0.88;;
61025;SDS011;46911;32.650;-16.902;2024-03-17T08:32:21;4.45;;;1.00;;
61025;SDS011;46911;32.650;-16.902;2024-03-17T08:34:25;6.90;;;1.58;;
61025;SDS011;46911;32.650;-16.902;2024-03-17T08:36:28;9.63;;;1.17;;
61025;SDS011;46911;32.650;-16.902;2024-03-17T08:38:30;5.13;;;1.00;;
61025;SDS011;46911;32.650;-16.902;2024-03-17T08:40:34;10.73;;;1.27;;
61025;SDS011;46911;32.650;-16.902;2024-03-17T08:42:37;4.30;;;1.00;;
61025;SDS011;46911;32.650;-16.902;2024-03-17T08:44:40;6.25;;;1.40;;
61025;SDS011;46911;32.650;-16.902;2024-03-17T08:46:41;12.32;;;0.90;;
61025;SDS011;46911;32.650;-16.902;2024-03-17T08:48:44;8.18;;;1.20;;
61025;SDS011;46911;32.650;-16.902;2024-03-17T08:50:54;10.57;;;1.00;;
61025;SDS011;46911;32.650;-16.902;2024-03-17T08:52:57;6.47;;;1.65;;
61025;SDS011;46911;32.650;-16.902;2024-03-17T08:55:01;8.95;;;1.38;;
61025;SDS011;46911;32.650;-16.902;2024-03-17T08:57:12;4.72;;;1.08;;
61025;SDS011;46911;32.650;-16.902;2024-03-17T08:59:14;6.13;;;0.95;;
61025;SDS011;46911;32.650;-16.902;2024-03-17T09:01:15;8.90;;;1.33;;
61025;SDS011;46911;32.650;-16.902;2024-03-17T09:03:18;10.25;;;1.23;;
61025;SDS011;46911;32.650;-16.902;2024-03-17T09:05:24;3.20;;;0.82;;
61025;SDS011;46911;32.650;-16.902;2024-03-17T09:07:27;5.75;;;1.02;;
61025;SDS011;46911;32.650;-16.902;2024-03-17T09:09:30;6.63;;;0.80;;
61025;SDS011;46911;32.650;-16.902;2024-03-17T09:11:34;7.20;;;1.13;;
61025;SDS011;46911;32.650;-16.902;2024-03-17T09:13:37;8.00;;;1.25;;
61025;SDS011;46911;32.650;-16.902;2024-03-17T09:15:38;8.45;;;1.33;;
61025;SDS011;46911;32.650;-16.902;2024-03-17T09:17:39;8.63;;;1.00;;
61025;SDS011;46911;32.650;-16.902;2024-03-17T09:19:40;11.68;;;1.42;;
61025;SDS011;46911;32.650;-16.902;2024-03-17T09:21:41;2.90;;;1.00;;
61025;SDS011;46911;32.650;-16.902;2024-03-17T09:23:48;6.53;;;0.90;;
61025;SDS011;46911;32.650;-16.902;2024-03-17T09:25:57;5.75;;;1.40;;
61025;SDS011;46911;32.650;-16.902;2024-03-17T09:28:19;8.40;;;1.95;;
61025;SDS011;46911;32.650;-16.902;2024-03-17T09:30:19;4.60;;;1.42;;
61025;SDS011;46911;32.650;-16.902;2024-03-17T09:32:24;9.02;;;1.65;;
61025;SDS011;46911;32.650;-16.902;2024-03-17T09:34:32;10.50;;;1.27;;
61025;SDS011;46911;32.650;-16.902;2024-03-17T09:36:33;8.95;;;1.30;;
61025;SDS011;46911;32.650;-16.902;2024-03-17T09:38:36;5.35;;;1.10;;
61025;SDS011;46911;32.650;-16.902;2024-03-17T09:40:37;5.72;;;1.27;;
61025;SDS011;46911;32.650;-16.902;2024-03-17T09:42:46;7.72;;;1.20;;
61025;SDS011;46911;32.650;-16.902;2024-03-17T09:44:50;7.25;;;1.65;;
61025;SDS011;46911;32.650;-16.902;2024-03-17T09:46:54;5.68;;;1.55;;
61025;SDS011;46911;32.650;-16.902;2024-03-17T09:48:57;6.60;;;1.50;;
61025;SDS011;46911;32.650;-16.902;2024-03-17T09:51:01;9.00;;;1.63;;
61025;SDS011;46911;32.650;-16.902;2024-03-17T09:53:06;10.35;;;1.80;;
61025;SDS011;46911;32.650;-16.902;2024-03-17T09:55:15;8.40;;;1.40;;
61025;SDS011;46911;32.650;-16.902;2024-03-17T09:57:18;8.23;;;1.67;;
61025;SDS011;46911;32.650;-16.902;2024-03-17T09:59:27;8.00;;;1.60;;
61025;SDS011;46911;32.650;-16.902;2024-03-17T10:01:30;9.23;;;1.67;;
61025;SDS011;46911;32.650;-16.902;2024-03-17T10:03:47;6.90;;;2.05;;
61025;SDS011;46911;32.650;-16.902;2024-03-17T10:05:59;5.68;;;1.38;;
61025;SDS011;46911;32.650;-16.902;2024-03-17T10:08:07;9.25;;;1.80;;
61025;SDS011;46911;32.650;-16.902;2024-03-17T10:10:21;6.97;;;1.80;;
61025;SDS011;46911;32.650;-16.902;2024-03-17T10:12:27;8.70;;;1.38;;
61025;SDS011;46911;32.650;-16.902;2024-03-17T10:14:32;7.80;;;1.20;;
61025;SDS011;46911;32.650;-16.902;2024-03-17T10:16:33;12.25;;;1.83;;
61025;SDS011;46911;32.650;-16.902;2024-03-17T10:18:39;7.80;;;1.00;;
61025;SDS011;46911;32.650;-16.902;2024-03-17T10:20:39;8.90;;;1.45;;
61025;SDS011;46911;32.650;-16.902;2024-03-17T10:23:25;7.53;;;1.70;;
61025;SDS011;46911;32.650;-16.902;2024-03-17T10:25:08;5.55;;;1.30;;
61025;SDS011;46911;32.650;-16.902;2024-03-17T10:27:13;6.47;;;1.25;;
61025;SDS011;46911;32.650;-16.902;2024-03-17T10:31:25;8.32;;;1.38;;
61025;SDS011;46911;32.650;-16.902;2024-03-17T10:33:28;7.57;;;2.33;;
61025;SDS011;46911;32.650;-16.902;2024-03-17T10:35:33;10.00;;;1.83;;
61025;SDS011;46911;32.650;-16.902;2024-03-17T10:37:35;7.50;;;1.55;;
61025;SDS011;46911;32.650;-16.902;2024-03-17T10:39:55;8.93;;;1.70;;
61025;SDS011;46911;32.650;-16.902;2024-03-17T10:42:00;10.02;;;1.85;;
61025;SDS011;46911;32.650;-16.902;2024-03-17T10:44:05;9.25;;;1.50;;
61025;SDS011;46911;32.650;-16.902;2024-03-17T10:46:07;9.43;;;1.67;;
61025;SDS011;46911;32.650;-16.902;2024-03-17T10:48:10;7.18;;;1.33;;
61025;SDS011;46911;32.650;-16.902;2024-03-17T10:50:20;13.10;;;1.88;;
61025;SDS011;46911;32.650;-16.902;2024-03-17T10:52:27;6.65;;;1.38;;
61025;SDS011;46911;32.650;-16.902;2024-03-17T10:54:29;6.65;;;1.38;;
61025;SDS011;46911;32.650;-16.902;2024-03-17T10:56:30;9.75;;;1.65;;
61025;SDS011;46911;32.650;-16.902;2024-03-17T11:00:38;9.07;;;2.05;;
61025;SDS011;46911;32.650;-16.902;2024-03-17T11:02:50;5.90;;;1.48;;
61025;SDS011;46911;32.650;-16.902;2024-03-17T11:04:53;11.38;;;2.05;;
61025;SDS011;46911;32.650;-16.902;2024-03-17T11:07:04;10.63;;;1.55;;
61025;SDS011;46911;32.650;-16.902;2024-03-17T11:09:12;8.70;;;1.55;;
61025;SDS011;46911;32.650;-16.902;2024-03-17T11:11:34;11.32;;;3.42;;
61025;SDS011;46911;32.650;-16.902;2024-03-17T11:13:42;10.27;;;1.65;;
61025;SDS011;46911;32.650;-16.902;2024-03-17T11:15:46;6.68;;;2.10;;
61025;SDS011;46911;32.650;-16.902;2024-03-17T11:17:55;11.63;;;1.67;;
61025;SDS011;46911;32.650;-16.902;2024-03-17T11:20:29;8.18;;;1.70;;
61025;SDS011;46911;32.650;-16.902;2024-03-17T11:22:42;11.48;;;1.65;;
61025;SDS011;46911;32.650;-16.902;2024-03-17T11:24:51;9.48;;;1.90;;
61025;SDS011;46911;32.650;-16.902;2024-03-17T11:26:55;7.95;;;1.73;;
61025;SDS011;46911;32.650;-16.902;2024-03-17T11:28:58;11.93;;;1.40;;
61025;SDS011;46911;32.650;-16.902;2024-03-17T11:33:49;9.20;;;1.73;;
61025;SDS011;46911;32.650;-16.902;2024-03-17T11:35:52;9.27;;;1.42;;
61025;SDS011;46911;32.650;-16.902;2024-03-17T11:41:30;11.50;;;1.45;;
61025;SDS011;46911;32.650;-16.902;2024-03-17T11:43:41;12.02;;;1.98;;
61025;SDS011;46911;32.650;-16.902;2024-03-17T11:45:42;16.60;;;1.63;;
61025;SDS011;46911;32.650;-16.902;2024-03-17T11:47:43;7.63;;;1.23;;
61025;SDS011;46911;32.650;-16.902;2024-03-17T11:49:44;7.07;;;1.52;;
61025;SDS011;46911;32.650;-16.902;2024-03-17T11:51:47;3.65;;;1.23;;
61025;SDS011;46911;32.650;-16.902;2024-03-17T11:53:57;6.40;;;1.10;;
61025;SDS011;46911;32.650;-16.902;2024-03-17T11:55:59;5.13;;;1.45;;
61025;SDS011;46911;32.650;-16.902;2024-03-17T11:58:04;10.20;;;2.03;;
61025;SDS011;46911;32.650;-16.902;2024-03-17T12:00:05;5.82;;;1.25;;
61025;SDS011;46911;32.650;-16.902;2024-03-17T12:04:30;5.00;;;1.35;;
61025;SDS011;46911;32.650;-16.902;2024-03-17T12:06:31;9.32;;;2.10;;
61025;SDS011;46911;32.650;-16.902;2024-03-17T12:08:35;5.72;;;1.50;;
61025;SDS011;46911;32.650;-16.902;2024-03-17T12:10:46;8.07;;;1.77;;
61025;SDS011;46911;32.650;-16.902;2024-03-17T12:12:48;9.02;;;1.98;;
61025;SDS011;46911;32.650;-16.902;2024-03-17T12:14:53;8.68;;;1.60;;
61025;SDS011;46911;32.650;-16.902;2024-03-17T12:16:57;9.63;;;1.52;;